JBU3170 KMSY-KBRO
Flight info
| Callsign | JBU3170 |
|---|---|
| Flight time | 1h 29m |
| Altitude | 34000 |
| Route | LFT LCH DAS PSX CRP BRO |
| Aircraft | A319/M-SDE3FGHIRWY/LB1 |
Departure
| Time | 2026-05-08 00:53 |
|---|---|
| Airport | Louis Armstrong New Orleans International Airport (KMSY) |
Arrival
| Time | 2026-05-08 02:22 |
|---|---|
| Airport | Brownsville South Padre Island International Airport (KBRO) |
| Time | Latitude | Longitude | Altitude | Speed | Heading |
|---|---|---|---|---|---|
| 2026-05-08 00:03 | 29.98722 | -90.25270 | 11 ft | 0 kts | 258° |
| 2026-05-08 00:27 | 29.98722 | -90.25265 | 11 ft | 2 kts | 258° |
| 2026-05-08 00:27 | 29.98726 | -90.25247 | 10 ft | 2 kts | 292° |
| 2026-05-08 00:27 | 29.98718 | -90.25235 | 10 ft | 0 kts | 353° |
| 2026-05-08 00:51 | 29.98719 | -90.25235 | 10 ft | 1 kts | 354° |
| 2026-05-08 00:51 | 29.98754 | -90.25219 | 10 ft | 10 kts | 21° |
| 2026-05-08 00:51 | 29.98836 | -90.25175 | 10 ft | 11 kts | 25° |
| 2026-05-08 00:51 | 29.98850 | -90.25168 | 10 ft | 0 kts | 23° |
| 2026-05-08 00:52 | 29.98894 | -90.25138 | 11 ft | 13 kts | 28° |
| 2026-05-08 00:52 | 29.98941 | -90.25187 | 13 ft | 13 kts | 281° |
| 2026-05-08 00:53 | 29.99051 | -90.25618 | 16 ft | 103 kts | 285° |
| 2026-05-08 00:53 | 29.99314 | -90.26726 | 16 ft | 181 kts | 285° |
| 2026-05-08 00:53 | 29.99676 | -90.28338 | 217 ft | 229 kts | 283° |
| 2026-05-08 00:53 | 30.00175 | -90.30077 | 1465 ft | 219 kts | 288° |
| 2026-05-08 00:54 | 30.00689 | -90.31682 | 2865 ft | 215 kts | 288° |
| 2026-05-08 00:54 | 30.01191 | -90.33315 | 4005 ft | 216 kts | 282° |
| 2026-05-08 00:54 | 30.01425 | -90.35031 | 5160 ft | 218 kts | 275° |
| 2026-05-08 00:54 | 30.01636 | -90.36862 | 5954 ft | 243 kts | 275° |
| 2026-05-08 00:55 | 30.01864 | -90.38895 | 6682 ft | 268 kts | 275° |
| 2026-05-08 00:55 | 30.02113 | -90.41097 | 7533 ft | 283 kts | 276° |
| 2026-05-08 00:55 | 30.02372 | -90.43374 | 8523 ft | 290 kts | 276° |
| 2026-05-08 00:55 | 30.02636 | -90.45669 | 9515 ft | 295 kts | 276° |
| 2026-05-08 00:56 | 30.02910 | -90.48030 | 10437 ft | 304 kts | 276° |
| 2026-05-08 00:56 | 30.03199 | -90.50549 | 10831 ft | 328 kts | 276° |
| 2026-05-08 00:56 | 30.03508 | -90.53254 | 11140 ft | 352 kts | 276° |
| 2026-05-08 00:56 | 30.03837 | -90.56138 | 11530 ft | 371 kts | 276° |
| 2026-05-08 00:57 | 30.04177 | -90.59120 | 12240 ft | 378 kts | 276° |
| 2026-05-08 00:57 | 30.04409 | -90.62155 | 13008 ft | 382 kts | 266° |
| 2026-05-08 00:57 | 30.03863 | -90.65147 | 13768 ft | 385 kts | 246° |
| 2026-05-08 00:57 | 30.02613 | -90.67887 | 14552 ft | 387 kts | 239° |
| 2026-05-08 00:58 | 30.01273 | -90.70560 | 15312 ft | 392 kts | 239° |
| 2026-05-08 00:58 | 29.99898 | -90.73289 | 16051 ft | 396 kts | 239° |
| 2026-05-08 00:58 | 29.98506 | -90.76049 | 16776 ft | 400 kts | 239° |
| 2026-05-08 00:58 | 29.97098 | -90.78839 | 17468 ft | 405 kts | 239° |
| 2026-05-08 00:59 | 29.95673 | -90.81660 | 18144 ft | 409 kts | 239° |
| 2026-05-08 00:59 | 29.94236 | -90.84509 | 18784 ft | 413 kts | 239° |
| 2026-05-08 00:59 | 29.93115 | -90.87565 | 19354 ft | 419 kts | 254° |
| 2026-05-08 00:59 | 29.92802 | -90.90914 | 19893 ft | 425 kts | 272° |
| 2026-05-08 01:00 | 29.93352 | -90.94273 | 20408 ft | 430 kts | 285° |
| 2026-05-08 01:00 | 29.94187 | -90.97593 | 20900 ft | 432 kts | 285° |
| 2026-05-08 01:00 | 29.95038 | -91.00928 | 21353 ft | 435 kts | 285° |
| 2026-05-08 01:00 | 29.95886 | -91.04244 | 21758 ft | 438 kts | 285° |
| 2026-05-08 01:01 | 29.96746 | -91.07617 | 22151 ft | 441 kts | 285° |
| 2026-05-08 01:01 | 29.97607 | -91.11018 | 22522 ft | 443 kts | 285° |
| 2026-05-08 01:01 | 29.98464 | -91.14438 | 22884 ft | 445 kts | 285° |
| 2026-05-08 01:01 | 29.99324 | -91.17886 | 23230 ft | 448 kts | 285° |
| 2026-05-08 01:02 | 30.00186 | -91.21349 | 23574 ft | 450 kts | 285° |
| 2026-05-08 01:02 | 30.01052 | -91.24831 | 23916 ft | 453 kts | 285° |
| 2026-05-08 01:02 | 30.01925 | -91.28332 | 24252 ft | 455 kts | 285° |
| 2026-05-08 01:02 | 30.02801 | -91.31848 | 24571 ft | 457 kts | 285° |
| 2026-05-08 01:03 | 30.03682 | -91.35384 | 24884 ft | 459 kts | 285° |
| 2026-05-08 01:03 | 30.04554 | -91.38886 | 25177 ft | 461 kts | 285° |
| 2026-05-08 01:03 | 30.05439 | -91.42453 | 25467 ft | 463 kts | 285° |
| 2026-05-08 01:03 | 30.06325 | -91.46037 | 25746 ft | 465 kts | 285° |
| 2026-05-08 01:04 | 30.07216 | -91.49633 | 26011 ft | 467 kts | 285° |
| 2026-05-08 01:04 | 30.08111 | -91.53247 | 26272 ft | 469 kts | 285° |
| 2026-05-08 01:04 | 30.09008 | -91.56878 | 26530 ft | 471 kts | 285° |
| 2026-05-08 01:04 | 30.09908 | -91.60524 | 26784 ft | 473 kts | 285° |
| 2026-05-08 01:05 | 30.10808 | -91.64181 | 27027 ft | 474 kts | 285° |
| 2026-05-08 01:05 | 30.11709 | -91.67853 | 27266 ft | 476 kts | 285° |
| 2026-05-08 01:05 | 30.12613 | -91.71539 | 27507 ft | 478 kts | 285° |
| 2026-05-08 01:05 | 30.13505 | -91.75184 | 27729 ft | 479 kts | 285° |
| 2026-05-08 01:06 | 30.14413 | -91.78901 | 27960 ft | 481 kts | 285° |
| 2026-05-08 01:06 | 30.15322 | -91.82621 | 28180 ft | 483 kts | 285° |
| 2026-05-08 01:06 | 30.16238 | -91.86363 | 28395 ft | 485 kts | 285° |
| 2026-05-08 01:06 | 30.17156 | -91.90113 | 28606 ft | 486 kts | 285° |
| 2026-05-08 01:07 | 30.18076 | -91.93880 | 28814 ft | 488 kts | 285° |
| 2026-05-08 01:07 | 30.18892 | -91.97682 | 29022 ft | 488 kts | 279° |
| 2026-05-08 01:07 | 30.19222 | -92.01581 | 29284 ft | 487 kts | 270° |
| 2026-05-08 01:07 | 30.19111 | -92.05482 | 29561 ft | 486 kts | 266° |
| 2026-05-08 01:08 | 30.18938 | -92.09384 | 29850 ft | 485 kts | 266° |
| 2026-05-08 01:08 | 30.18770 | -92.13276 | 30145 ft | 485 kts | 266° |
| 2026-05-08 01:08 | 30.18601 | -92.17157 | 30439 ft | 484 kts | 266° |
| 2026-05-08 01:08 | 30.18433 | -92.20992 | 30734 ft | 484 kts | 266° |
| 2026-05-08 01:09 | 30.18261 | -92.24868 | 31034 ft | 483 kts | 266° |
| 2026-05-08 01:09 | 30.18088 | -92.28737 | 31341 ft | 482 kts | 266° |
| 2026-05-08 01:09 | 30.17911 | -92.32610 | 31646 ft | 482 kts | 266° |
| 2026-05-08 01:09 | 30.17735 | -92.36473 | 31957 ft | 481 kts | 266° |
| 2026-05-08 01:10 | 30.17559 | -92.40325 | 32268 ft | 481 kts | 266° |
| 2026-05-08 01:10 | 30.17383 | -92.44191 | 32586 ft | 480 kts | 266° |
| 2026-05-08 01:10 | 30.17207 | -92.48034 | 32908 ft | 479 kts | 266° |
| 2026-05-08 01:10 | 30.17027 | -92.51881 | 33236 ft | 479 kts | 266° |
| 2026-05-08 01:11 | 30.16844 | -92.55715 | 33577 ft | 478 kts | 266° |
| 2026-05-08 01:11 | 30.16665 | -92.59499 | 33917 ft | 477 kts | 266° |
| 2026-05-08 01:11 | 30.16482 | -92.63333 | 34115 ft | 480 kts | 266° |
| 2026-05-08 01:12 | 30.16108 | -92.71136 | 34156 ft | 493 kts | 266° |
| 2026-05-08 01:12 | 30.15721 | -92.79140 | 34229 ft | 500 kts | 266° |
| 2026-05-08 01:12 | 30.15531 | -92.83071 | 34469 ft | 484 kts | 266° |
| 2026-05-08 01:13 | 30.15342 | -92.86924 | 34251 ft | 478 kts | 265° |
| 2026-05-08 01:13 | 30.15151 | -92.90734 | 34139 ft | 474 kts | 265° |
| 2026-05-08 01:13 | 30.14960 | -92.94488 | 34158 ft | 474 kts | 265° |
| 2026-05-08 01:14 | 30.14575 | -93.02091 | 34156 ft | 474 kts | 265° |
| 2026-05-08 01:14 | 30.14194 | -93.09690 | 34155 ft | 474 kts | 266° |
| 2026-05-08 01:15 | 30.14398 | -93.17307 | 34157 ft | 475 kts | 271° |
| 2026-05-08 01:15 | 30.14679 | -93.24881 | 34159 ft | 475 kts | 271° |
| 2026-05-08 01:16 | 30.14946 | -93.32500 | 34160 ft | 475 kts | 271° |
| 2026-05-08 01:16 | 30.15213 | -93.40125 | 34159 ft | 475 kts | 271° |
| 2026-05-08 01:17 | 30.15480 | -93.47742 | 34158 ft | 475 kts | 271° |
| 2026-05-08 01:17 | 30.15739 | -93.55320 | 34156 ft | 475 kts | 271° |
| 2026-05-08 01:18 | 30.15995 | -93.63027 | 34157 ft | 486 kts | 271° |
| 2026-05-08 01:18 | 30.16255 | -93.70897 | 34156 ft | 492 kts | 271° |
| 2026-05-08 01:19 | 30.16509 | -93.78802 | 34156 ft | 493 kts | 271° |
| 2026-05-08 01:19 | 30.16763 | -93.86724 | 34156 ft | 493 kts | 271° |
| 2026-05-08 01:20 | 30.17008 | -93.94592 | 34156 ft | 493 kts | 271° |
| 2026-05-08 01:20 | 30.17250 | -94.02510 | 34156 ft | 493 kts | 271° |
| 2026-05-08 01:21 | 30.17488 | -94.10447 | 34157 ft | 493 kts | 271° |
| 2026-05-08 01:21 | 30.17721 | -94.18377 | 34158 ft | 494 kts | 271° |
| 2026-05-08 01:22 | 30.17947 | -94.26250 | 34160 ft | 494 kts | 271° |
| 2026-05-08 01:22 | 30.18163 | -94.34178 | 34162 ft | 494 kts | 271° |
| 2026-05-08 01:23 | 30.18380 | -94.42107 | 34163 ft | 494 kts | 271° |
| 2026-05-08 01:23 | 30.18598 | -94.50047 | 34163 ft | 494 kts | 271° |
| 2026-05-08 01:24 | 30.18682 | -94.57974 | 34159 ft | 493 kts | 264° |
| 2026-05-08 01:24 | 30.18077 | -94.61852 | 34158 ft | 491 kts | 253° |
| 2026-05-08 01:24 | 30.16883 | -94.65476 | 34155 ft | 489 kts | 243° |
| 2026-05-08 01:24 | 30.15117 | -94.68823 | 34156 ft | 488 kts | 232° |
| 2026-05-08 01:25 | 30.12872 | -94.71755 | 34157 ft | 487 kts | 225° |
| 2026-05-08 01:25 | 30.08136 | -94.77352 | 34156 ft | 487 kts | 225° |
| 2026-05-08 01:26 | 30.03407 | -94.82966 | 34156 ft | 487 kts | 225° |
| 2026-05-08 01:26 | 29.98711 | -94.88537 | 34156 ft | 487 kts | 225° |
| 2026-05-08 01:27 | 29.93984 | -94.94132 | 34156 ft | 487 kts | 225° |
| 2026-05-08 01:27 | 29.89245 | -94.99733 | 34156 ft | 487 kts | 225° |
| 2026-05-08 01:28 | 29.84510 | -95.05306 | 34156 ft | 487 kts | 225° |
| 2026-05-08 01:28 | 29.79795 | -95.10857 | 34155 ft | 487 kts | 225° |
| 2026-05-08 01:29 | 29.75059 | -95.16428 | 34155 ft | 487 kts | 225° |
| 2026-05-08 01:29 | 29.70307 | -95.22013 | 34156 ft | 488 kts | 225° |
| 2026-05-08 01:30 | 29.65563 | -95.27579 | 34156 ft | 487 kts | 225° |
| 2026-05-08 01:30 | 29.60843 | -95.33103 | 34156 ft | 488 kts | 225° |
| 2026-05-08 01:31 | 29.56091 | -95.38661 | 34156 ft | 488 kts | 225° |
| 2026-05-08 01:31 | 29.51332 | -95.44213 | 34156 ft | 488 kts | 225° |
| 2026-05-08 01:32 | 29.46571 | -95.49760 | 34156 ft | 487 kts | 225° |
| 2026-05-08 01:32 | 29.41813 | -95.55296 | 34157 ft | 488 kts | 225° |
| 2026-05-08 01:33 | 29.37049 | -95.60833 | 34156 ft | 487 kts | 225° |
| 2026-05-08 01:33 | 29.32317 | -95.66329 | 34154 ft | 487 kts | 225° |
| 2026-05-08 01:34 | 29.27559 | -95.71848 | 34152 ft | 487 kts | 225° |
| 2026-05-08 01:34 | 29.22793 | -95.77365 | 34150 ft | 487 kts | 225° |
| 2026-05-08 01:35 | 29.18062 | -95.82831 | 34146 ft | 487 kts | 224° |
| 2026-05-08 01:35 | 29.13288 | -95.88335 | 34143 ft | 487 kts | 224° |
| 2026-05-08 01:36 | 29.08521 | -95.93830 | 34146 ft | 487 kts | 224° |
| 2026-05-08 01:36 | 29.03750 | -95.99322 | 34144 ft | 486 kts | 224° |
| 2026-05-08 01:37 | 28.99014 | -96.04764 | 34143 ft | 486 kts | 224° |
| 2026-05-08 01:37 | 28.94238 | -96.10242 | 34143 ft | 487 kts | 224° |
| 2026-05-08 01:38 | 28.89458 | -96.15725 | 34145 ft | 487 kts | 224° |
| 2026-05-08 01:38 | 28.84672 | -96.21207 | 34150 ft | 487 kts | 224° |
| 2026-05-08 01:39 | 28.79919 | -96.26643 | 34149 ft | 487 kts | 224° |
| 2026-05-08 01:39 | 28.75170 | -96.32142 | 34107 ft | 487 kts | 226° |
| 2026-05-08 01:39 | 28.72900 | -96.35013 | 33980 ft | 488 kts | 228° |
| 2026-05-08 01:40 | 28.70704 | -96.37965 | 33855 ft | 488 kts | 230° |
| 2026-05-08 01:40 | 28.68556 | -96.40951 | 33729 ft | 488 kts | 230° |
| 2026-05-08 01:40 | 28.66413 | -96.43949 | 33607 ft | 488 kts | 230° |
| 2026-05-08 01:40 | 28.64252 | -96.46940 | 33481 ft | 489 kts | 230° |
| 2026-05-08 01:41 | 28.62099 | -96.49869 | 33358 ft | 489 kts | 229° |
| 2026-05-08 01:41 | 28.59895 | -96.52821 | 33234 ft | 489 kts | 229° |
| 2026-05-08 01:41 | 28.57684 | -96.55751 | 33109 ft | 489 kts | 229° |
| 2026-05-08 01:41 | 28.55453 | -96.58691 | 32980 ft | 490 kts | 229° |
| 2026-05-08 01:42 | 28.53232 | -96.61624 | 32861 ft | 490 kts | 229° |
| 2026-05-08 01:42 | 28.51012 | -96.64566 | 32733 ft | 490 kts | 229° |
| 2026-05-08 01:42 | 28.48796 | -96.67511 | 32607 ft | 490 kts | 229° |
| 2026-05-08 01:42 | 28.46609 | -96.70422 | 32489 ft | 491 kts | 229° |
| 2026-05-08 01:43 | 28.44395 | -96.73371 | 32351 ft | 491 kts | 229° |
| 2026-05-08 01:43 | 28.42175 | -96.76323 | 32235 ft | 491 kts | 229° |
| 2026-05-08 01:43 | 28.39953 | -96.79272 | 32115 ft | 491 kts | 229° |
| 2026-05-08 01:43 | 28.37730 | -96.82218 | 31984 ft | 492 kts | 229° |
| 2026-05-08 01:44 | 28.35503 | -96.85167 | 31843 ft | 492 kts | 229° |
| 2026-05-08 01:44 | 28.33304 | -96.88079 | 31600 ft | 477 kts | 229° |
| 2026-05-08 01:44 | 28.31185 | -96.90885 | 31351 ft | 458 kts | 229° |
| 2026-05-08 01:44 | 28.29147 | -96.93580 | 31104 ft | 441 kts | 229° |
| 2026-05-08 01:45 | 28.27209 | -96.96138 | 30851 ft | 426 kts | 228° |
| 2026-05-08 01:45 | 28.25310 | -96.98643 | 30599 ft | 413 kts | 228° |
| 2026-05-08 01:45 | 28.23455 | -97.01089 | 30355 ft | 407 kts | 228° |
| 2026-05-08 01:45 | 28.21614 | -97.03516 | 30103 ft | 404 kts | 228° |
| 2026-05-08 01:46 | 28.19784 | -97.05928 | 29854 ft | 402 kts | 228° |
| 2026-05-08 01:46 | 28.17964 | -97.08322 | 29604 ft | 400 kts | 228° |
| 2026-05-08 01:46 | 28.16147 | -97.10707 | 29355 ft | 399 kts | 228° |
| 2026-05-08 01:46 | 28.14337 | -97.13081 | 29102 ft | 397 kts | 228° |
| 2026-05-08 01:47 | 28.12540 | -97.15441 | 28854 ft | 395 kts | 228° |
| 2026-05-08 01:47 | 28.10771 | -97.17768 | 28607 ft | 394 kts | 228° |
| 2026-05-08 01:47 | 28.08990 | -97.20110 | 28358 ft | 392 kts | 228° |
| 2026-05-08 01:48 | 28.05448 | -97.24765 | 27856 ft | 389 kts | 228° |
| 2026-05-08 01:48 | 28.03688 | -97.27074 | 27607 ft | 387 kts | 228° |
| 2026-05-08 01:48 | 28.01928 | -97.29383 | 27352 ft | 386 kts | 228° |
| 2026-05-08 01:48 | 28.00182 | -97.31667 | 27101 ft | 384 kts | 228° |
| 2026-05-08 01:49 | 27.98436 | -97.33948 | 26859 ft | 382 kts | 228° |
| 2026-05-08 01:49 | 27.96696 | -97.36223 | 26610 ft | 381 kts | 228° |
| 2026-05-08 01:49 | 27.94967 | -97.38482 | 26354 ft | 379 kts | 228° |
| 2026-05-08 01:49 | 27.93267 | -97.40702 | 26108 ft | 378 kts | 228° |
| 2026-05-08 01:50 | 27.91494 | -97.42880 | 25856 ft | 375 kts | 219° |
| 2026-05-08 01:50 | 27.89236 | -97.44262 | 25610 ft | 370 kts | 194° |
| 2026-05-08 01:50 | 27.86690 | -97.44584 | 25253 ft | 370 kts | 181° |
| 2026-05-08 01:50 | 27.84126 | -97.44582 | 24751 ft | 367 kts | 179° |
| 2026-05-08 01:51 | 27.81585 | -97.44514 | 24250 ft | 364 kts | 178° |
| 2026-05-08 01:51 | 27.79063 | -97.44416 | 23747 ft | 361 kts | 178° |
| 2026-05-08 01:51 | 27.76567 | -97.44307 | 23247 ft | 358 kts | 178° |
| 2026-05-08 01:51 | 27.74121 | -97.44199 | 22750 ft | 355 kts | 178° |
| 2026-05-08 01:52 | 27.71665 | -97.44097 | 22253 ft | 352 kts | 178° |
| 2026-05-08 01:52 | 27.69225 | -97.44001 | 21752 ft | 349 kts | 178° |
| 2026-05-08 01:52 | 27.66807 | -97.43910 | 21252 ft | 346 kts | 178° |
| 2026-05-08 01:52 | 27.64406 | -97.43821 | 20750 ft | 344 kts | 178° |
| 2026-05-08 01:53 | 27.62027 | -97.43733 | 20250 ft | 341 kts | 178° |
| 2026-05-08 01:53 | 27.59664 | -97.43644 | 19745 ft | 338 kts | 178° |
| 2026-05-08 01:53 | 27.57320 | -97.43557 | 19255 ft | 335 kts | 178° |
| 2026-05-08 01:53 | 27.54999 | -97.43470 | 18747 ft | 333 kts | 178° |
| 2026-05-08 01:54 | 27.52726 | -97.43383 | 18253 ft | 330 kts | 178° |
| 2026-05-08 01:54 | 27.50441 | -97.43296 | 17752 ft | 327 kts | 178° |
| 2026-05-08 01:54 | 27.48173 | -97.43213 | 17251 ft | 325 kts | 178° |
| 2026-05-08 01:54 | 27.45921 | -97.43131 | 16750 ft | 322 kts | 178° |
| 2026-05-08 01:55 | 27.43689 | -97.43048 | 16248 ft | 320 kts | 178° |
| 2026-05-08 01:55 | 27.41479 | -97.42965 | 15748 ft | 317 kts | 178° |
| 2026-05-08 01:55 | 27.39280 | -97.42881 | 15247 ft | 315 kts | 178° |
| 2026-05-08 01:55 | 27.37100 | -97.42800 | 14746 ft | 312 kts | 178° |
| 2026-05-08 01:56 | 27.34965 | -97.42722 | 14252 ft | 310 kts | 178° |
| 2026-05-08 01:56 | 27.32820 | -97.42642 | 13750 ft | 307 kts | 178° |
| 2026-05-08 01:56 | 27.30691 | -97.42559 | 13250 ft | 305 kts | 178° |
| 2026-05-08 01:56 | 27.28579 | -97.42479 | 12745 ft | 303 kts | 178° |
| 2026-05-08 01:57 | 27.26479 | -97.42401 | 12243 ft | 300 kts | 178° |
| 2026-05-08 01:57 | 27.24401 | -97.42325 | 11745 ft | 298 kts | 178° |
| 2026-05-08 01:57 | 27.22339 | -97.42250 | 11245 ft | 296 kts | 178° |
| 2026-05-08 01:57 | 27.20286 | -97.42173 | 10742 ft | 294 kts | 178° |
| 2026-05-08 01:58 | 27.18254 | -97.42095 | 10241 ft | 291 kts | 178° |
| 2026-05-08 01:58 | 27.16263 | -97.42019 | 9747 ft | 289 kts | 178° |
| 2026-05-08 01:58 | 27.14261 | -97.41945 | 9244 ft | 287 kts | 178° |
| 2026-05-08 01:58 | 27.12272 | -97.41871 | 8751 ft | 285 kts | 178° |
| 2026-05-08 01:59 | 27.10299 | -97.41796 | 8242 ft | 283 kts | 178° |
| 2026-05-08 01:59 | 27.08344 | -97.41721 | 7741 ft | 280 kts | 178° |
| 2026-05-08 01:59 | 27.06403 | -97.41650 | 7239 ft | 278 kts | 178° |
| 2026-05-08 01:59 | 27.04475 | -97.41581 | 6731 ft | 276 kts | 178° |
| 2026-05-08 02:00 | 27.02562 | -97.41513 | 6236 ft | 274 kts | 178° |
| 2026-05-08 02:00 | 27.00664 | -97.41443 | 5730 ft | 272 kts | 178° |
| 2026-05-08 02:00 | 26.98778 | -97.41372 | 5232 ft | 270 kts | 178° |
| 2026-05-08 02:00 | 26.96933 | -97.41304 | 4738 ft | 268 kts | 178° |
| 2026-05-08 02:01 | 26.95074 | -97.41234 | 4236 ft | 266 kts | 178° |
| 2026-05-08 02:01 | 26.93229 | -97.41162 | 3734 ft | 265 kts | 178° |
| 2026-05-08 02:01 | 26.91393 | -97.41092 | 3233 ft | 263 kts | 178° |
| 2026-05-08 02:01 | 26.89573 | -97.41028 | 2732 ft | 261 kts | 178° |
| 2026-05-08 02:02 | 26.87761 | -97.40964 | 2226 ft | 260 kts | 178° |
| 2026-05-08 02:02 | 26.85974 | -97.40898 | 2004 ft | 255 kts | 178° |
| 2026-05-08 02:02 | 26.84198 | -97.40833 | 1998 ft | 256 kts | 178° |
| 2026-05-08 02:02 | 26.82419 | -97.40768 | 2000 ft | 256 kts | 178° |
| 2026-05-08 02:03 | 26.80657 | -97.40702 | 2000 ft | 256 kts | 178° |
| 2026-05-08 02:03 | 26.78879 | -97.40637 | 2000 ft | 256 kts | 178° |
| 2026-05-08 02:03 | 26.77096 | -97.40572 | 2000 ft | 256 kts | 178° |
| 2026-05-08 02:03 | 26.75315 | -97.40506 | 2000 ft | 256 kts | 178° |
| 2026-05-08 02:04 | 26.73533 | -97.40442 | 2001 ft | 256 kts | 178° |
| 2026-05-08 02:04 | 26.71750 | -97.40378 | 2000 ft | 256 kts | 178° |
| 2026-05-08 02:04 | 26.69967 | -97.40312 | 1999 ft | 256 kts | 178° |
| 2026-05-08 02:04 | 26.68186 | -97.40246 | 1997 ft | 256 kts | 178° |
| 2026-05-08 02:05 | 26.66429 | -97.40181 | 1994 ft | 256 kts | 178° |
| 2026-05-08 02:05 | 26.64653 | -97.40115 | 1992 ft | 256 kts | 178° |
| 2026-05-08 02:05 | 26.62877 | -97.40049 | 1990 ft | 255 kts | 178° |
| 2026-05-08 02:05 | 26.61100 | -97.39984 | 1987 ft | 255 kts | 178° |
| 2026-05-08 02:06 | 26.59324 | -97.39917 | 1988 ft | 255 kts | 178° |
| 2026-05-08 02:06 | 26.57548 | -97.39852 | 1984 ft | 255 kts | 178° |
| 2026-05-08 02:06 | 26.55775 | -97.39786 | 1983 ft | 255 kts | 178° |
| 2026-05-08 02:06 | 26.54002 | -97.39720 | 1981 ft | 255 kts | 178° |
| 2026-05-08 02:07 | 26.52252 | -97.39654 | 1980 ft | 255 kts | 178° |
| 2026-05-08 02:07 | 26.50477 | -97.39586 | 1979 ft | 255 kts | 178° |
| 2026-05-08 02:07 | 26.48704 | -97.39519 | 1978 ft | 255 kts | 178° |
| 2026-05-08 02:07 | 26.46931 | -97.39452 | 1980 ft | 255 kts | 178° |
| 2026-05-08 02:08 | 26.45151 | -97.39387 | 1980 ft | 255 kts | 178° |
| 2026-05-08 02:08 | 26.43379 | -97.39325 | 1978 ft | 255 kts | 178° |
| 2026-05-08 02:08 | 26.41607 | -97.39262 | 1978 ft | 255 kts | 178° |
| 2026-05-08 02:08 | 26.39856 | -97.39198 | 1977 ft | 255 kts | 178° |
| 2026-05-08 02:09 | 26.38084 | -97.39132 | 1978 ft | 255 kts | 178° |
| 2026-05-08 02:09 | 26.36308 | -97.39066 | 1978 ft | 255 kts | 178° |
| 2026-05-08 02:09 | 26.34538 | -97.39001 | 1975 ft | 255 kts | 178° |
| 2026-05-08 02:09 | 26.32761 | -97.38937 | 1976 ft | 255 kts | 178° |
| 2026-05-08 02:10 | 26.30987 | -97.38872 | 1975 ft | 255 kts | 178° |
| 2026-05-08 02:10 | 26.29213 | -97.38809 | 1978 ft | 255 kts | 178° |
| 2026-05-08 02:10 | 26.27441 | -97.38744 | 1977 ft | 255 kts | 178° |
| 2026-05-08 02:10 | 26.25715 | -97.38456 | 1973 ft | 255 kts | 163° |
| 2026-05-08 02:11 | 26.24105 | -97.37634 | 1974 ft | 256 kts | 151° |
| 2026-05-08 02:11 | 26.22552 | -97.36658 | 1978 ft | 256 kts | 151° |
| 2026-05-08 02:11 | 26.20997 | -97.35689 | 1974 ft | 256 kts | 152° |
| 2026-05-08 02:11 | 26.19443 | -97.34726 | 1974 ft | 256 kts | 152° |
| 2026-05-08 02:12 | 26.17885 | -97.33764 | 1977 ft | 256 kts | 152° |
| 2026-05-08 02:12 | 26.16327 | -97.32804 | 1978 ft | 256 kts | 152° |
| 2026-05-08 02:12 | 26.14771 | -97.31845 | 1974 ft | 256 kts | 152° |
| 2026-05-08 02:12 | 26.13214 | -97.30883 | 1976 ft | 256 kts | 152° |
| 2026-05-08 02:13 | 26.11681 | -97.29933 | 1974 ft | 256 kts | 152° |
| 2026-05-08 02:13 | 26.10125 | -97.28969 | 1974 ft | 256 kts | 152° |
| 2026-05-08 02:13 | 26.08568 | -97.28006 | 1982 ft | 258 kts | 152° |
| 2026-05-08 02:13 | 26.06991 | -97.27034 | 1991 ft | 259 kts | 152° |
| 2026-05-08 02:14 | 26.05415 | -97.26058 | 1997 ft | 259 kts | 152° |
| 2026-05-08 02:14 | 26.03843 | -97.25086 | 2000 ft | 258 kts | 152° |
| 2026-05-08 02:14 | 26.02277 | -97.24118 | 1999 ft | 257 kts | 152° |
| 2026-05-08 02:14 | 26.00715 | -97.23152 | 1996 ft | 257 kts | 152° |
| 2026-05-08 02:15 | 25.99155 | -97.22189 | 1993 ft | 256 kts | 152° |
| 2026-05-08 02:15 | 25.97620 | -97.21242 | 1990 ft | 256 kts | 152° |
| 2026-05-08 02:15 | 25.96061 | -97.20281 | 1989 ft | 256 kts | 152° |
| 2026-05-08 02:15 | 25.94506 | -97.19324 | 1984 ft | 256 kts | 152° |
| 2026-05-08 02:16 | 25.92951 | -97.18365 | 1981 ft | 256 kts | 152° |
| 2026-05-08 02:16 | 25.91398 | -97.17406 | 1981 ft | 256 kts | 152° |
| 2026-05-08 02:16 | 25.89787 | -97.16579 | 1976 ft | 255 kts | 166° |
| 2026-05-08 02:16 | 25.88034 | -97.16453 | 1973 ft | 254 kts | 188° |
| 2026-05-08 02:17 | 25.86373 | -97.17092 | 1978 ft | 252 kts | 210° |
| 2026-05-08 02:17 | 25.85037 | -97.18246 | 1992 ft | 235 kts | 219° |
| 2026-05-08 02:17 | 25.83840 | -97.19361 | 1996 ft | 220 kts | 219° |
| 2026-05-08 02:17 | 25.82703 | -97.20416 | 1996 ft | 207 kts | 219° |
| 2026-05-08 02:18 | 25.81615 | -97.21425 | 1999 ft | 202 kts | 218° |
| 2026-05-08 02:18 | 25.80536 | -97.22421 | 2000 ft | 202 kts | 218° |
| 2026-05-08 02:18 | 25.79572 | -97.23544 | 1999 ft | 203 kts | 236° |
| 2026-05-08 02:18 | 25.79062 | -97.25006 | 2001 ft | 206 kts | 259° |
| 2026-05-08 02:19 | 25.79110 | -97.26593 | 2000 ft | 209 kts | 282° |
| 2026-05-08 02:19 | 25.79726 | -97.28055 | 2002 ft | 212 kts | 302° |
| 2026-05-08 02:19 | 25.80529 | -97.29397 | 2002 ft | 211 kts | 302° |
| 2026-05-08 02:19 | 25.81334 | -97.30762 | 1983 ft | 210 kts | 301° |
| 2026-05-08 02:20 | 25.82126 | -97.32113 | 1713 ft | 207 kts | 301° |
| 2026-05-08 02:20 | 25.82911 | -97.33461 | 1703 ft | 210 kts | 301° |
| 2026-05-08 02:20 | 25.83713 | -97.34822 | 1699 ft | 211 kts | 304° |
| 2026-05-08 02:20 | 25.84741 | -97.36001 | 1574 ft | 214 kts | 315° |
| 2026-05-08 02:21 | 25.85804 | -97.37146 | 1240 ft | 211 kts | 314° |
| 2026-05-08 02:21 | 25.86850 | -97.38282 | 930 ft | 210 kts | 314° |
| 2026-05-08 02:21 | 25.87885 | -97.39409 | 649 ft | 204 kts | 314° |
| 2026-05-08 02:21 | 25.88856 | -97.40468 | 357 ft | 194 kts | 314° |
| 2026-05-08 02:22 | 25.89748 | -97.41471 | 99 ft | 167 kts | 314° |
| 2026-05-08 02:22 | 25.90495 | -97.42262 | 29 ft | 127 kts | 316° |
| 2026-05-08 02:22 | 25.91000 | -97.42817 | 28 ft | 69 kts | 315° |
| 2026-05-08 02:22 | 25.91211 | -97.43093 | 24 ft | 25 kts | 257° |
| 2026-05-08 02:23 | 25.91088 | -97.43091 | 29 ft | 22 kts | 159° |
| 2026-05-08 02:23 | 25.90873 | -97.43047 | 30 ft | 39 kts | 184° |
| 2026-05-08 02:23 | 25.90621 | -97.43077 | 33 ft | 27 kts | 204° |
| 2026-05-08 02:23 | 25.90596 | -97.43118 | 34 ft | 0 kts | 268° |